Twizzle — 2DKS5 — position and weather

sailwx.info

Track history (hours):
 
Tides and Currents Weather Stations Pressure Air Temp Water Temp Dewpoint Dewpoint Depression Visibility Wind Speed Wind Dir Waves Ship Positions

Twizzle

Last reported at 2016-May-04 17:06 UTC. Time now 2016-May-04 19:19 UTC.
Position N 36°07' W 005°12'.

Length 58 m; draft 3.8 m.

Type: Sailing vessel. MMSI: 235079813.

Date/timePositionNaut miles runAvg speedWind from/ knotsBaromVisibWave heightAir tempDewpointWater temp
2016-May-04 17:06N 36°07' W 005°12'611.2
2016-May-04 16:33N 36°06' W 005°19'4 3.3
2016-May-04 15:28N 36°09' W 005°22'0 0.0
2016-May-04 14:31N 36°09' W 005°22'1 1.4
2016-May-04 13:33N 36°08' W 005°23'1010.2
2016-May-04 12:33N 35°58' W 005°28'107 6.2
2016-May-03 19:24N 36°21' W 007°37'7 7.7
2016-May-03 18:33N 36°24' W 007°44'8 8.0
2016-May-03 17:33N 36°27' W 007°54'8 8.0
2016-May-03 16:32N 36°30' W 008°03'69 7.5
2016-May-03 07:20N 37°07' W 009°16'911.6
2016-May-03 06:33N 37°15' W 009°18'1111.4
2016-May-03 05:33N 37°27' W 009°21'1111.4
2016-May-03 04:33N 37°38' W 009°24'1111.5
2016-May-03 03:33N 37°49' W 009°28'1211.6
2016-May-03 02:33N 38°00' W 009°31'1111.4
2016-May-03 01:33N 38°11' W 009°34'1111.4
2016-May-03 00:34N 38°22' W 009°37'1211.6
2016-May-02 23:33N 38°34' W 009°40'1211.7
2016-May-02 22:33N 38°45' W 009°43'1111.5
2016-May-02 21:33N 38°57' W 009°44'1311.5
2016-May-02 20:25N 39°10' W 009°45'  
2016-Apr-29 13:23N 54°02' W 004°32'94 3.6
2016-Apr-28 11:34N 52°37' W 005°40'1515.1
2016-Apr-28 10:33N 52°23' W 005°50'1515.0
2016-Apr-28 09:33N 52°10' W 005°60'1313.3
2016-Apr-28 08:34N 52°00' W 006°15'1312.7
2016-Apr-28 07:33N 51°52' W 006°31'1211.6
2016-Apr-28 06:33N 51°45' W 006°45'6111.6
2016-Apr-28 01:18N 51°05' W 007°60'  
Track history (hours):
 
Tides and Currents Weather Stations Pressure Air Temp Water Temp Dewpoint Dewpoint Depression Visibility Wind Speed Wind Dir Waves Ship Positions

Twizzle

Last reported at 2016-May-04 17:06 UTC. Time now 2016-May-04 19:19 UTC.
Position N 36°07' W 005°12'.

Length 58 m; draft 3.8 m.

Type: Sailing vessel. MMSI: 235079813.

Date/timePositionNaut miles runAvg speedWind from/ knotsBaromVisibWave heightAir tempDewpointWater temp
2016-May-04 17:06N 36°07' W 005°12'611.2
2016-May-04 16:33N 36°06' W 005°19'4 3.3
2016-May-04 15:28N 36°09' W 005°22'0 0.0
2016-May-04 14:31N 36°09' W 005°22'1 1.4
2016-May-04 13:33N 36°08' W 005°23'1010.2
2016-May-04 12:33N 35°58' W 005°28'107 6.2
2016-May-03 19:24N 36°21' W 007°37'7 7.7
2016-May-03 18:33N 36°24' W 007°44'8 8.0
2016-May-03 17:33N 36°27' W 007°54'8 8.0
2016-May-03 16:32N 36°30' W 008°03'69 7.5
2016-May-03 07:20N 37°07' W 009°16'911.6
2016-May-03 06:33N 37°15' W 009°18'1111.4
2016-May-03 05:33N 37°27' W 009°21'1111.4
2016-May-03 04:33N 37°38' W 009°24'1111.5
2016-May-03 03:33N 37°49' W 009°28'1211.6
2016-May-03 02:33N 38°00' W 009°31'1111.4
2016-May-03 01:33N 38°11' W 009°34'1111.4
2016-May-03 00:34N 38°22' W 009°37'1211.6
2016-May-02 23:33N 38°34' W 009°40'1211.7
2016-May-02 22:33N 38°45' W 009°43'1111.5
2016-May-02 21:33N 38°57' W 009°44'1311.5
2016-May-02 20:25N 39°10' W 009°45'  
2016-Apr-29 13:23N 54°02' W 004°32'94 3.6
2016-Apr-28 11:34N 52°37' W 005°40'1515.1
2016-Apr-28 10:33N 52°23' W 005°50'1515.0
2016-Apr-28 09:33N 52°10' W 005°60'1313.3
2016-Apr-28 08:34N 52°00' W 006°15'1312.7
2016-Apr-28 07:33N 51°52' W 006°31'1211.6
2016-Apr-28 06:33N 51°45' W 006°45'6111.6
2016-Apr-28 01:18N 51°05' W 007°60'  

Dump ship's entire track history